Terminal Aerodrome Forecast
Issued by NWS Blacksburg, VA

Home | Current Version | Previous Version | Text Only | Print | Product List | Glossary On
Versions: 1 2 3 4 5 6 7 8 9 10 11 12 13 14 15 16 17 18 19 20 21 22 23 24 25 26 27 28 29 30 31 32 33 34 35 36 37 38 39 40 41 42 43
000
FTUS41 KRNK 241141
TAFDAN
TAF
KDAN 241141Z 2412/2512 32004KT P6SM -SHRA FEW035 OVC080
      TEMPO 2412/2413 4SM SHRA BR BKN035
     FM241330 33003KT P6SM SCT040 OVC100
     FM241800 32005KT P6SM VCTS BKN040CB
      TEMPO 2418/2419 3SM TSRA BKN025CB
     FM250000 36004KT P6SM BKN050
     FM250700 02003KT 3SM BR SCT045 BKN250=

USA.gov is the U.S. government's official web portal to all federal, state and local government web resources and services.